sensor_id;sensor_type;location;lat;lon;timestamp;P1;durP1;ratioP1;P2;durP2;ratioP2
8036;SDS011;4061;51.360;7.340;2022-12-18T00:02:08;2.30;;;0.97;;
8036;SDS011;4061;51.360;7.340;2022-12-18T00:04:35;1.00;;;0.80;;
8036;SDS011;4061;51.360;7.340;2022-12-18T00:07:03;0.77;;;0.77;;
8036;SDS011;4061;51.360;7.340;2022-12-18T00:09:31;0.93;;;0.93;;
8036;SDS011;4061;51.360;7.340;2022-12-18T00:11:58;4.90;;;0.97;;
8036;SDS011;4061;51.360;7.340;2022-12-18T00:14:25;2.10;;;1.20;;
8036;SDS011;4061;51.360;7.340;2022-12-18T00:16:52;2.37;;;1.43;;
8036;SDS011;4061;51.360;7.340;2022-12-18T00:19:19;1.63;;;1.30;;
8036;SDS011;4061;51.360;7.340;2022-12-18T00:21:46;2.00;;;1.07;;
8036;SDS011;4061;51.360;7.340;2022-12-18T00:24:15;3.03;;;1.33;;
8036;SDS011;4061;51.360;7.340;2022-12-18T00:26:42;1.13;;;1.13;;
8036;SDS011;4061;51.360;7.340;2022-12-18T00:29:10;1.43;;;1.20;;
8036;SDS011;4061;51.360;7.340;2022-12-18T00:31:38;2.67;;;1.27;;
8036;SDS011;4061;51.360;7.340;2022-12-18T00:34:06;1.60;;;1.30;;
8036;SDS011;4061;51.360;7.340;2022-12-18T00:36:33;4.07;;;1.13;;
8036;SDS011;4061;51.360;7.340;2022-12-18T00:39:02;3.73;;;1.30;;
8036;SDS011;4061;51.360;7.340;2022-12-18T00:41:31;7.13;;;1.40;;
8036;SDS011;4061;51.360;7.340;2022-12-18T00:44:16;1.23;;;1.23;;
8036;SDS011;4061;51.360;7.340;2022-12-18T00:46:44;3.37;;;1.20;;
8036;SDS011;4061;51.360;7.340;2022-12-18T00:49:11;2.37;;;1.20;;
8036;SDS011;4061;51.360;7.340;2022-12-18T00:51:39;1.53;;;0.93;;
8036;SDS011;4061;51.360;7.340;2022-12-18T00:54:06;2.70;;;1.37;;
8036;SDS011;4061;51.360;7.340;2022-12-18T00:56:36;1.10;;;1.10;;
8036;SDS011;4061;51.360;7.340;2022-12-18T00:59:03;1.67;;;1.20;;
8036;SDS011;4061;51.360;7.340;2022-12-18T01:01:30;3.13;;;1.10;;
8036;SDS011;4061;51.360;7.340;2022-12-18T01:03:59;3.97;;;1.40;;
8036;SDS011;4061;51.360;7.340;2022-12-18T01:06:26;3.67;;;1.30;;
8036;SDS011;4061;51.360;7.340;2022-12-18T01:08:53;1.17;;;0.93;;
8036;SDS011;4061;51.360;7.340;2022-12-18T01:11:20;1.87;;;1.20;;
8036;SDS011;4061;51.360;7.340;2022-12-18T01:13:49;2.07;;;0.90;;
8036;SDS011;4061;51.360;7.340;2022-12-18T01:16:17;2.40;;;1.60;;
8036;SDS011;4061;51.360;7.340;2022-12-18T01:18:45;0.80;;;0.77;;
8036;SDS011;4061;51.360;7.340;2022-12-18T01:21:16;1.57;;;0.93;;
8036;SDS011;4061;51.360;7.340;2022-12-18T01:23:43;2.33;;;1.13;;
8036;SDS011;4061;51.360;7.340;2022-12-18T01:26:11;1.33;;;1.20;;
8036;SDS011;4061;51.360;7.340;2022-12-18T01:28:38;4.17;;;1.87;;
8036;SDS011;4061;51.360;7.340;2022-12-18T01:31:11;1.17;;;0.50;;
8036;SDS011;4061;51.360;7.340;2022-12-18T01:33:38;5.10;;;1.70;;
8036;SDS011;4061;51.360;7.340;2022-12-18T01:36:05;1.33;;;1.20;;
8036;SDS011;4061;51.360;7.340;2022-12-18T01:38:32;1.20;;;1.10;;
8036;SDS011;4061;51.360;7.340;2022-12-18T01:40:59;1.57;;;1.17;;
8036;SDS011;4061;51.360;7.340;2022-12-18T01:43:47;3.40;;;1.63;;
8036;SDS011;4061;51.360;7.340;2022-12-18T01:46:16;2.27;;;1.20;;
8036;SDS011;4061;51.360;7.340;2022-12-18T01:48:43;0.73;;;0.73;;
8036;SDS011;4061;51.360;7.340;2022-12-18T01:51:11;4.10;;;1.20;;
8036;SDS011;4061;51.360;7.340;2022-12-18T01:53:40;1.33;;;0.87;;
8036;SDS011;4061;51.360;7.340;2022-12-18T01:56:08;2.10;;;1.27;;
8036;SDS011;4061;51.360;7.340;2022-12-18T01:58:37;0.93;;;0.80;;
8036;SDS011;4061;51.360;7.340;2022-12-18T02:01:06;2.17;;;1.10;;
8036;SDS011;4061;51.360;7.340;2022-12-18T02:03:35;1.40;;;1.40;;
8036;SDS011;4061;51.360;7.340;2022-12-18T02:06:05;0.70;;;0.60;;
8036;SDS011;4061;51.360;7.340;2022-12-18T02:08:36;1.90;;;1.00;;
8036;SDS011;4061;51.360;7.340;2022-12-18T02:11:05;2.37;;;1.17;;
8036;SDS011;4061;51.360;7.340;2022-12-18T02:13:36;1.27;;;1.17;;
8036;SDS011;4061;51.360;7.340;2022-12-18T02:16:06;1.27;;;1.00;;
8036;SDS011;4061;51.360;7.340;2022-12-18T02:18:36;2.93;;;1.60;;
8036;SDS011;4061;51.360;7.340;2022-12-18T02:21:08;1.93;;;1.53;;
8036;SDS011;4061;51.360;7.340;2022-12-18T02:23:41;2.13;;;1.47;;
8036;SDS011;4061;51.360;7.340;2022-12-18T02:26:15;2.10;;;1.00;;
8036;SDS011;4061;51.360;7.340;2022-12-18T02:28:44;1.43;;;1.03;;
8036;SDS011;4061;51.360;7.340;2022-12-18T02:31:13;0.60;;;0.60;;
8036;SDS011;4061;51.360;7.340;2022-12-18T02:33:41;1.23;;;1.03;;
8036;SDS011;4061;51.360;7.340;2022-12-18T02:36:10;2.20;;;1.10;;
8036;SDS011;4061;51.360;7.340;2022-12-18T02:38:37;1.23;;;1.23;;
8036;SDS011;4061;51.360;7.340;2022-12-18T02:41:05;1.27;;;1.07;;
8036;SDS011;4061;51.360;7.340;2022-12-18T02:43:34;0.83;;;0.83;;
8036;SDS011;4061;51.360;7.340;2022-12-18T02:48:43;1.07;;;0.90;;
8036;SDS011;4061;51.360;7.340;2022-12-18T02:51:11;1.83;;;1.50;;
8036;SDS011;4061;51.360;7.340;2022-12-18T02:53:43;1.73;;;0.97;;
8036;SDS011;4061;51.360;7.340;2022-12-18T02:56:11;1.43;;;1.23;;
8036;SDS011;4061;51.360;7.340;2022-12-18T02:58:43;2.67;;;1.10;;
8036;SDS011;4061;51.360;7.340;2022-12-18T03:01:15;3.23;;;1.00;;
8036;SDS011;4061;51.360;7.340;2022-12-18T03:03:43;1.23;;;0.90;;
8036;SDS011;4061;51.360;7.340;2022-12-18T03:06:14;1.07;;;1.07;;
8036;SDS011;4061;51.360;7.340;2022-12-18T03:08:45;2.77;;;1.20;;
8036;SDS011;4061;51.360;7.340;2022-12-18T03:11:14;1.23;;;1.07;;
8036;SDS011;4061;51.360;7.340;2022-12-18T03:14:02;2.30;;;0.90;;
8036;SDS011;4061;51.360;7.340;2022-12-18T03:16:30;1.53;;;0.90;;
8036;SDS011;4061;51.360;7.340;2022-12-18T03:18:58;1.43;;;1.20;;
8036;SDS011;4061;51.360;7.340;2022-12-18T03:21:28;1.77;;;1.13;;
8036;SDS011;4061;51.360;7.340;2022-12-18T03:23:56;0.50;;;0.50;;
8036;SDS011;4061;51.360;7.340;2022-12-18T03:26:24;4.27;;;1.37;;
8036;SDS011;4061;51.360;7.340;2022-12-18T03:28:53;1.27;;;1.17;;
8036;SDS011;4061;51.360;7.340;2022-12-18T03:31:24;1.37;;;1.27;;
8036;SDS011;4061;51.360;7.340;2022-12-18T03:33:52;1.93;;;1.30;;
8036;SDS011;4061;51.360;7.340;2022-12-18T03:36:19;1.37;;;0.93;;
8036;SDS011;4061;51.360;7.340;2022-12-18T03:38:47;1.27;;;1.13;;
8036;SDS011;4061;51.360;7.340;2022-12-18T03:41:16;1.57;;;0.97;;
8036;SDS011;4061;51.360;7.340;2022-12-18T03:43:47;0.70;;;0.70;;
8036;SDS011;4061;51.360;7.340;2022-12-18T03:46:17;0.60;;;0.50;;
8036;SDS011;4061;51.360;7.340;2022-12-18T03:48:51;2.60;;;0.77;;
8036;SDS011;4061;51.360;7.340;2022-12-18T03:51:21;1.63;;;1.00;;
8036;SDS011;4061;51.360;7.340;2022-12-18T03:53:51;0.93;;;0.93;;
8036;SDS011;4061;51.360;7.340;2022-12-18T03:56:20;1.97;;;1.43;;
8036;SDS011;4061;51.360;7.340;2022-12-18T03:58:48;1.70;;;0.73;;
8036;SDS011;4061;51.360;7.340;2022-12-18T04:01:16;1.70;;;0.90;;
8036;SDS011;4061;51.360;7.340;2022-12-18T04:03:44;2.57;;;1.27;;
8036;SDS011;4061;51.360;7.340;2022-12-18T04:06:14;2.00;;;1.33;;
8036;SDS011;4061;51.360;7.340;2022-12-18T04:08:42;0.90;;;0.83;;
8036;SDS011;4061;51.360;7.340;2022-12-18T04:11:10;1.13;;;1.13;;
8036;SDS011;4061;51.360;7.340;2022-12-18T04:13:37;1.23;;;1.07;;
8036;SDS011;4061;51.360;7.340;2022-12-18T04:16:05;1.90;;;1.33;;
8036;SDS011;4061;51.360;7.340;2022-12-18T04:18:32;2.47;;;0.80;;
8036;SDS011;4061;51.360;7.340;2022-12-18T04:20:59;2.47;;;1.57;;
8036;SDS011;4061;51.360;7.340;2022-12-18T04:23:28;1.50;;;0.97;;
8036;SDS011;4061;51.360;7.340;2022-12-18T04:25:55;2.80;;;0.90;;
8036;SDS011;4061;51.360;7.340;2022-12-18T04:28:22;0.97;;;0.97;;
8036;SDS011;4061;51.360;7.340;2022-12-18T04:30:49;2.33;;;1.10;;
8036;SDS011;4061;51.360;7.340;2022-12-18T04:33:17;1.13;;;1.13;;
8036;SDS011;4061;51.360;7.340;2022-12-18T04:35:45;1.87;;;1.20;;
8036;SDS011;4061;51.360;7.340;2022-12-18T04:38:12;2.73;;;1.17;;
8036;SDS011;4061;51.360;7.340;2022-12-18T04:40:40;1.57;;;1.20;;
8036;SDS011;4061;51.360;7.340;2022-12-18T04:43:08;0.77;;;0.67;;
8036;SDS011;4061;51.360;7.340;2022-12-18T04:45:35;2.13;;;0.97;;
8036;SDS011;4061;51.360;7.340;2022-12-18T04:48:02;1.33;;;1.03;;
8036;SDS011;4061;51.360;7.340;2022-12-18T04:50:30;1.00;;;0.83;;
8036;SDS011;4061;51.360;7.340;2022-12-18T04:52:57;2.40;;;1.20;;
8036;SDS011;4061;51.360;7.340;2022-12-18T04:55:24;1.47;;;1.23;;
8036;SDS011;4061;51.360;7.340;2022-12-18T04:57:53;2.10;;;1.40;;
8036;SDS011;4061;51.360;7.340;2022-12-18T05:00:20;1.17;;;0.90;;
8036;SDS011;4061;51.360;7.340;2022-12-18T05:02:48;1.03;;;1.03;;
8036;SDS011;4061;51.360;7.340;2022-12-18T05:05:15;0.70;;;0.70;;
8036;SDS011;4061;51.360;7.340;2022-12-18T05:07:42;1.73;;;1.63;;
8036;SDS011;4061;51.360;7.340;2022-12-18T05:10:09;2.10;;;0.97;;
8036;SDS011;4061;51.360;7.340;2022-12-18T05:12:36;1.57;;;0.90;;
8036;SDS011;4061;51.360;7.340;2022-12-18T05:15:24;1.53;;;1.40;;
8036;SDS011;4061;51.360;7.340;2022-12-18T05:17:53;2.23;;;1.63;;
8036;SDS011;4061;51.360;7.340;2022-12-18T05:20:20;3.60;;;0.70;;
8036;SDS011;4061;51.360;7.340;2022-12-18T05:22:47;1.77;;;1.20;;
8036;SDS011;4061;51.360;7.340;2022-12-18T05:25:14;2.07;;;1.17;;
8036;SDS011;4061;51.360;7.340;2022-12-18T05:27:41;2.00;;;1.00;;
8036;SDS011;4061;51.360;7.340;2022-12-18T05:30:09;0.87;;;0.87;;
8036;SDS011;4061;51.360;7.340;2022-12-18T05:32:37;0.83;;;0.70;;
8036;SDS011;4061;51.360;7.340;2022-12-18T05:35:05;1.40;;;1.20;;
8036;SDS011;4061;51.360;7.340;2022-12-18T05:37:33;1.43;;;1.07;;
8036;SDS011;4061;51.360;7.340;2022-12-18T05:40:00;1.07;;;0.93;;
8036;SDS011;4061;51.360;7.340;2022-12-18T05:42:27;2.27;;;0.83;;
8036;SDS011;4061;51.360;7.340;2022-12-18T05:44:54;0.70;;;0.70;;
8036;SDS011;4061;51.360;7.340;2022-12-18T05:47:22;2.13;;;0.93;;
8036;SDS011;4061;51.360;7.340;2022-12-18T05:49:50;0.87;;;0.80;;
8036;SDS011;4061;51.360;7.340;2022-12-18T05:52:17;1.63;;;0.90;;
8036;SDS011;4061;51.360;7.340;2022-12-18T05:54:44;1.53;;;1.07;;
8036;SDS011;4061;51.360;7.340;2022-12-18T05:57:11;1.80;;;0.83;;
8036;SDS011;4061;51.360;7.340;2022-12-18T05:59:39;0.50;;;0.50;;
8036;SDS011;4061;51.360;7.340;2022-12-18T06:02:06;1.27;;;0.83;;
8036;SDS011;4061;51.360;7.340;2022-12-18T06:04:33;1.93;;;1.20;;
8036;SDS011;4061;51.360;7.340;2022-12-18T06:07:01;0.90;;;0.90;;
8036;SDS011;4061;51.360;7.340;2022-12-18T06:09:28;1.50;;;1.10;;
8036;SDS011;4061;51.360;7.340;2022-12-18T06:11:57;2.20;;;0.90;;
8036;SDS011;4061;51.360;7.340;2022-12-18T06:14:24;2.33;;;1.43;;
8036;SDS011;4061;51.360;7.340;2022-12-18T06:16:51;1.17;;;1.07;;
8036;SDS011;4061;51.360;7.340;2022-12-18T06:19:18;2.40;;;1.10;;
8036;SDS011;4061;51.360;7.340;2022-12-18T06:21:46;1.77;;;1.07;;
8036;SDS011;4061;51.360;7.340;2022-12-18T06:24:15;1.20;;;1.10;;
8036;SDS011;4061;51.360;7.340;2022-12-18T06:26:42;2.23;;;1.20;;
8036;SDS011;4061;51.360;7.340;2022-12-18T06:29:10;1.93;;;1.30;;
8036;SDS011;4061;51.360;7.340;2022-12-18T06:31:37;2.50;;;1.23;;
8036;SDS011;4061;51.360;7.340;2022-12-18T06:34:04;2.67;;;1.50;;
8036;SDS011;4061;51.360;7.340;2022-12-18T06:36:31;3.70;;;1.43;;
8036;SDS011;4061;51.360;7.340;2022-12-18T06:38:59;1.33;;;0.90;;
8036;SDS011;4061;51.360;7.340;2022-12-18T06:41:27;1.77;;;1.40;;
8036;SDS011;4061;51.360;7.340;2022-12-18T06:43:54;2.03;;;1.03;;
8036;SDS011;4061;51.360;7.340;2022-12-18T06:46:21;1.67;;;1.10;;
8036;SDS011;4061;51.360;7.340;2022-12-18T06:48:49;1.03;;;1.00;;
8036;SDS011;4061;51.360;7.340;2022-12-18T06:51:17;3.43;;;1.47;;
8036;SDS011;4061;51.360;7.340;2022-12-18T06:53:44;3.07;;;1.63;;
8036;SDS011;4061;51.360;7.340;2022-12-18T06:56:11;4.97;;;1.23;;
8036;SDS011;4061;51.360;7.340;2022-12-18T06:58:40;4.20;;;1.10;;
8036;SDS011;4061;51.360;7.340;2022-12-18T07:01:07;5.13;;;1.20;;
8036;SDS011;4061;51.360;7.340;2022-12-18T07:03:35;1.87;;;1.53;;
8036;SDS011;4061;51.360;7.340;2022-12-18T07:06:02;7.90;;;1.87;;
8036;SDS011;4061;51.360;7.340;2022-12-18T07:08:29;1.70;;;1.20;;
8036;SDS011;4061;51.360;7.340;2022-12-18T07:10:57;1.67;;;1.37;;
8036;SDS011;4061;51.360;7.340;2022-12-18T07:13:24;2.73;;;1.50;;
8036;SDS011;4061;51.360;7.340;2022-12-18T07:15:53;2.97;;;1.80;;
8036;SDS011;4061;51.360;7.340;2022-12-18T07:18:20;4.07;;;1.70;;
8036;SDS011;4061;51.360;7.340;2022-12-18T07:20:47;2.97;;;1.97;;
8036;SDS011;4061;51.360;7.340;2022-12-18T07:23:14;1.40;;;1.30;;
8036;SDS011;4061;51.360;7.340;2022-12-18T07:25:41;1.57;;;1.37;;
8036;SDS011;4061;51.360;7.340;2022-12-18T07:28:08;2.77;;;1.67;;
8036;SDS011;4061;51.360;7.340;2022-12-18T07:30:37;2.03;;;1.40;;
8036;SDS011;4061;51.360;7.340;2022-12-18T07:33:06;2.43;;;1.47;;
8036;SDS011;4061;51.360;7.340;2022-12-18T07:35:33;1.67;;;1.20;;
8036;SDS011;4061;51.360;7.340;2022-12-18T07:38:00;4.63;;;1.67;;
8036;SDS011;4061;51.360;7.340;2022-12-18T07:40:27;4.47;;;1.40;;
8036;SDS011;4061;51.360;7.340;2022-12-18T07:42:54;2.23;;;1.00;;
8036;SDS011;4061;51.360;7.340;2022-12-18T07:45:22;3.80;;;1.13;;
8036;SDS011;4061;51.360;7.340;2022-12-18T07:47:49;3.67;;;1.73;;
8036;SDS011;4061;51.360;7.340;2022-12-18T07:50:17;2.47;;;1.73;;
8036;SDS011;4061;51.360;7.340;2022-12-18T07:52:44;1.60;;;1.50;;
8036;SDS011;4061;51.360;7.340;2022-12-18T07:55:11;3.77;;;1.87;;
8036;SDS011;4061;51.360;7.340;2022-12-18T07:57:39;2.47;;;1.73;;
8036;SDS011;4061;51.360;7.340;2022-12-18T08:00:06;1.93;;;0.97;;
8036;SDS011;4061;51.360;7.340;2022-12-18T08:02:33;6.17;;;1.50;;
8036;SDS011;4061;51.360;7.340;2022-12-18T08:05:00;1.63;;;1.10;;
8036;SDS011;4061;51.360;7.340;2022-12-18T08:07:29;3.37;;;1.50;;
8036;SDS011;4061;51.360;7.340;2022-12-18T08:09:56;2.07;;;0.97;;
8036;SDS011;4061;51.360;7.340;2022-12-18T08:12:23;2.20;;;1.23;;
8036;SDS011;4061;51.360;7.340;2022-12-18T08:14:50;1.43;;;1.33;;
8036;SDS011;4061;51.360;7.340;2022-12-18T08:17:18;2.53;;;1.07;;
8036;SDS011;4061;51.360;7.340;2022-12-18T08:19:46;1.33;;;0.97;;
8036;SDS011;4061;51.360;7.340;2022-12-18T08:22:13;2.00;;;1.00;;
8036;SDS011;4061;51.360;7.340;2022-12-18T08:24:41;1.27;;;0.70;;
8036;SDS011;4061;51.360;7.340;2022-12-18T08:27:08;1.70;;;1.10;;
8036;SDS011;4061;51.360;7.340;2022-12-18T08:29:36;4.40;;;1.47;;
8036;SDS011;4061;51.360;7.340;2022-12-18T08:32:03;2.40;;;1.30;;
8036;SDS011;4061;51.360;7.340;2022-12-18T08:34:30;1.10;;;1.10;;
8036;SDS011;4061;51.360;7.340;2022-12-18T08:36:57;5.07;;;1.43;;
8036;SDS011;4061;51.360;7.340;2022-12-18T08:39:24;1.07;;;1.03;;
8036;SDS011;4061;51.360;7.340;2022-12-18T08:41:53;2.27;;;1.23;;
8036;SDS011;4061;51.360;7.340;2022-12-18T08:44:49;1.43;;;1.10;;
8036;SDS011;4061;51.360;7.340;2022-12-18T08:47:16;2.30;;;1.23;;
8036;SDS011;4061;51.360;7.340;2022-12-18T08:49:43;1.97;;;1.30;;
8036;SDS011;4061;51.360;7.340;2022-12-18T08:52:11;1.33;;;1.23;;
8036;SDS011;4061;51.360;7.340;2022-12-18T08:54:38;3.30;;;1.33;;
8036;SDS011;4061;51.360;7.340;2022-12-18T08:57:06;1.27;;;1.17;;
8036;SDS011;4061;51.360;7.340;2022-12-18T08:59:33;2.53;;;1.67;;
8036;SDS011;4061;51.360;7.340;2022-12-18T09:02:00;2.53;;;1.43;;
8036;SDS011;4061;51.360;7.340;2022-12-18T09:04:28;1.77;;;1.33;;
8036;SDS011;4061;51.360;7.340;2022-12-18T09:06:55;1.73;;;1.50;;
8036;SDS011;4061;51.360;7.340;2022-12-18T09:09:22;4.07;;;1.60;;
8036;SDS011;4061;51.360;7.340;2022-12-18T09:11:49;1.60;;;1.27;;
8036;SDS011;4061;51.360;7.340;2022-12-18T09:14:17;1.57;;;1.10;;
8036;SDS011;4061;51.360;7.340;2022-12-18T09:16:45;3.07;;;1.53;;
8036;SDS011;4061;51.360;7.340;2022-12-18T09:19:12;2.70;;;1.13;;
8036;SDS011;4061;51.360;7.340;2022-12-18T09:21:39;0.90;;;0.90;;
8036;SDS011;4061;51.360;7.340;2022-12-18T09:24:08;1.30;;;1.20;;
8036;SDS011;4061;51.360;7.340;2022-12-18T09:26:37;0.63;;;0.63;;
8036;SDS011;4061;51.360;7.340;2022-12-18T09:29:05;2.33;;;1.00;;
8036;SDS011;4061;51.360;7.340;2022-12-18T09:31:34;1.83;;;1.17;;
8036;SDS011;4061;51.360;7.340;2022-12-18T09:34:02;3.27;;;1.50;;
8036;SDS011;4061;51.360;7.340;2022-12-18T09:36:29;1.30;;;1.13;;
8036;SDS011;4061;51.360;7.340;2022-12-18T09:38:56;1.27;;;1.17;;
8036;SDS011;4061;51.360;7.340;2022-12-18T09:41:32;1.60;;;0.97;;
8036;SDS011;4061;51.360;7.340;2022-12-18T09:44:00;1.60;;;1.50;;
8036;SDS011;4061;51.360;7.340;2022-12-18T09:46:28;1.40;;;1.20;;
8036;SDS011;4061;51.360;7.340;2022-12-18T09:48:59;1.57;;;1.07;;
8036;SDS011;4061;51.360;7.340;2022-12-18T09:51:27;1.87;;;1.23;;
8036;SDS011;4061;51.360;7.340;2022-12-18T09:53:56;1.70;;;0.90;;
8036;SDS011;4061;51.360;7.340;2022-12-18T09:56:25;3.00;;;1.30;;
8036;SDS011;4061;51.360;7.340;2022-12-18T09:58:55;1.27;;;1.00;;
8036;SDS011;4061;51.360;7.340;2022-12-18T10:01:24;2.13;;;1.20;;
8036;SDS011;4061;51.360;7.340;2022-12-18T10:03:52;1.33;;;0.93;;
8036;SDS011;4061;51.360;7.340;2022-12-18T10:06:22;0.80;;;0.80;;
8036;SDS011;4061;51.360;7.340;2022-12-18T10:08:51;1.70;;;1.40;;
8036;SDS011;4061;51.360;7.340;2022-12-18T10:11:27;1.40;;;1.30;;
8036;SDS011;4061;51.360;7.340;2022-12-18T10:13:56;1.23;;;0.77;;
8036;SDS011;4061;51.360;7.340;2022-12-18T10:16:25;1.40;;;1.27;;
8036;SDS011;4061;51.360;7.340;2022-12-18T10:18:59;1.90;;;1.10;;
8036;SDS011;4061;51.360;7.340;2022-12-18T10:21:30;1.30;;;1.10;;
8036;SDS011;4061;51.360;7.340;2022-12-18T10:24:00;1.90;;;1.33;;
8036;SDS011;4061;51.360;7.340;2022-12-18T10:26:29;1.17;;;1.03;;
8036;SDS011;4061;51.360;7.340;2022-12-18T10:28:58;1.07;;;0.97;;
8036;SDS011;4061;51.360;7.340;2022-12-18T10:31:26;3.93;;;1.93;;
8036;SDS011;4061;51.360;7.340;2022-12-18T10:33:53;1.23;;;1.10;;
8036;SDS011;4061;51.360;7.340;2022-12-18T10:36:22;2.63;;;1.70;;
8036;SDS011;4061;51.360;7.340;2022-12-18T10:38:51;2.03;;;1.30;;
8036;SDS011;4061;51.360;7.340;2022-12-18T10:41:25;2.73;;;2.00;;
8036;SDS011;4061;51.360;7.340;2022-12-18T10:44:10;3.57;;;2.00;;
8036;SDS011;4061;51.360;7.340;2022-12-18T10:46:37;4.13;;;1.80;;
8036;SDS011;4061;51.360;7.340;2022-12-18T10:49:04;2.10;;;1.40;;
8036;SDS011;4061;51.360;7.340;2022-12-18T10:51:32;2.03;;;1.27;;
8036;SDS011;4061;51.360;7.340;2022-12-18T10:54:02;4.90;;;1.63;;
8036;SDS011;4061;51.360;7.340;2022-12-18T10:56:31;1.70;;;1.10;;
8036;SDS011;4061;51.360;7.340;2022-12-18T10:59:00;2.77;;;1.20;;
8036;SDS011;4061;51.360;7.340;2022-12-18T11:01:27;4.17;;;1.20;;
8036;SDS011;4061;51.360;7.340;2022-12-18T11:03:59;1.80;;;1.47;;
8036;SDS011;4061;51.360;7.340;2022-12-18T11:06:26;1.47;;;1.10;;
8036;SDS011;4061;51.360;7.340;2022-12-18T11:08:57;1.37;;;0.97;;
8036;SDS011;4061;51.360;7.340;2022-12-18T11:11:26;1.97;;;1.87;;
8036;SDS011;4061;51.360;7.340;2022-12-18T11:13:58;2.13;;;1.80;;
8036;SDS011;4061;51.360;7.340;2022-12-18T11:16:26;5.97;;;2.53;;
8036;SDS011;4061;51.360;7.340;2022-12-18T11:18:53;2.50;;;1.40;;
8036;SDS011;4061;51.360;7.340;2022-12-18T11:21:20;3.20;;;1.10;;
8036;SDS011;4061;51.360;7.340;2022-12-18T11:23:49;3.07;;;1.50;;
8036;SDS011;4061;51.360;7.340;2022-12-18T11:26:16;1.93;;;1.00;;
8036;SDS011;4061;51.360;7.340;2022-12-18T11:28:46;2.20;;;1.10;;
8036;SDS011;4061;51.360;7.340;2022-12-18T11:31:21;2.43;;;1.17;;
8036;SDS011;4061;51.360;7.340;2022-12-18T11:33:54;2.53;;;1.20;;
8036;SDS011;4061;51.360;7.340;2022-12-18T11:36:23;3.47;;;1.77;;
8036;SDS011;4061;51.360;7.340;2022-12-18T11:38:51;2.47;;;1.30;;
8036;SDS011;4061;51.360;7.340;2022-12-18T11:41:20;3.20;;;1.70;;
8036;SDS011;4061;51.360;7.340;2022-12-18T11:44:11;4.60;;;2.37;;
8036;SDS011;4061;51.360;7.340;2022-12-18T11:46:43;11.37;;;4.00;;
8036;SDS011;4061;51.360;7.340;2022-12-18T11:49:12;3.50;;;2.17;;
8036;SDS011;4061;51.360;7.340;2022-12-18T11:51:41;7.67;;;2.40;;
8036;SDS011;4061;51.360;7.340;2022-12-18T11:54:11;4.93;;;1.70;;
8036;SDS011;4061;51.360;7.340;2022-12-18T11:56:41;5.57;;;1.97;;
8036;SDS011;4061;51.360;7.340;2022-12-18T11:59:14;4.63;;;2.80;;
8036;SDS011;4061;51.360;7.340;2022-12-18T12:01:45;3.63;;;2.40;;
8036;SDS011;4061;51.360;7.340;2022-12-18T12:04:38;1.43;;;1.33;;
8036;SDS011;4061;51.360;7.340;2022-12-18T12:07:11;1.93;;;1.77;;
8036;SDS011;4061;51.360;7.340;2022-12-18T12:09:43;6.87;;;3.17;;
8036;SDS011;4061;51.360;7.340;2022-12-18T12:12:20;3.30;;;2.00;;
8036;SDS011;4061;51.360;7.340;2022-12-18T12:14:52;2.13;;;1.50;;
8036;SDS011;4061;51.360;7.340;2022-12-18T12:17:24;1.97;;;1.20;;
8036;SDS011;4061;51.360;7.340;2022-12-18T12:19:55;4.67;;;1.87;;
8036;SDS011;4061;51.360;7.340;2022-12-18T12:22:25;9.73;;;1.37;;
8036;SDS011;4061;51.360;7.340;2022-12-18T12:25:01;3.33;;;2.03;;
8036;SDS011;4061;51.360;7.340;2022-12-18T12:27:34;2.00;;;1.53;;
8036;SDS011;4061;51.360;7.340;2022-12-18T12:30:06;2.20;;;1.43;;
8036;SDS011;4061;51.360;7.340;2022-12-18T12:32:42;6.93;;;1.97;;
8036;SDS011;4061;51.360;7.340;2022-12-18T12:35:13;5.17;;;1.80;;
8036;SDS011;4061;51.360;7.340;2022-12-18T12:37:44;2.00;;;1.37;;
8036;SDS011;4061;51.360;7.340;2022-12-18T12:40:14;3.17;;;1.53;;
8036;SDS011;4061;51.360;7.340;2022-12-18T12:42:44;2.43;;;1.50;;
8036;SDS011;4061;51.360;7.340;2022-12-18T12:45:34;1.53;;;1.30;;
8036;SDS011;4061;51.360;7.340;2022-12-18T12:48:03;1.50;;;1.40;;
8036;SDS011;4061;51.360;7.340;2022-12-18T12:50:32;4.80;;;2.07;;
8036;SDS011;4061;51.360;7.340;2022-12-18T12:53:01;3.60;;;2.10;;
8036;SDS011;4061;51.360;7.340;2022-12-18T12:55:28;3.60;;;1.67;;
8036;SDS011;4061;51.360;7.340;2022-12-18T12:57:57;2.13;;;1.93;;
8036;SDS011;4061;51.360;7.340;2022-12-18T13:00:26;1.83;;;1.60;;
8036;SDS011;4061;51.360;7.340;2022-12-18T13:02:56;2.10;;;1.77;;
8036;SDS011;4061;51.360;7.340;2022-12-18T13:05:29;3.80;;;2.60;;
8036;SDS011;4061;51.360;7.340;2022-12-18T13:07:57;3.80;;;2.30;;
8036;SDS011;4061;51.360;7.340;2022-12-18T13:10:30;5.60;;;2.33;;
8036;SDS011;4061;51.360;7.340;2022-12-18T13:12:58;3.10;;;2.00;;
8036;SDS011;4061;51.360;7.340;2022-12-18T13:15:32;2.90;;;2.30;;
8036;SDS011;4061;51.360;7.340;2022-12-18T13:18:04;4.00;;;2.43;;
8036;SDS011;4061;51.360;7.340;2022-12-18T13:20:32;3.20;;;2.27;;
8036;SDS011;4061;51.360;7.340;2022-12-18T13:23:01;4.43;;;2.40;;
8036;SDS011;4061;51.360;7.340;2022-12-18T13:25:45;4.13;;;2.37;;
8036;SDS011;4061;51.360;7.340;2022-12-18T13:28:13;2.53;;;2.13;;
8036;SDS011;4061;51.360;7.340;2022-12-18T13:30:41;7.40;;;2.47;;
8036;SDS011;4061;51.360;7.340;2022-12-18T13:36:01;5.67;;;2.50;;
8036;SDS011;4061;51.360;7.340;2022-12-18T13:38:33;3.37;;;1.97;;
8036;SDS011;4061;51.360;7.340;2022-12-18T13:41:01;4.27;;;2.80;;
8036;SDS011;4061;51.360;7.340;2022-12-18T13:43:30;6.97;;;3.60;;
8036;SDS011;4061;51.360;7.340;2022-12-18T13:46:04;6.77;;;3.77;;
8036;SDS011;4061;51.360;7.340;2022-12-18T13:48:32;4.87;;;2.93;;
8036;SDS011;4061;51.360;7.340;2022-12-18T13:51:03;3.50;;;2.40;;
8036;SDS011;4061;51.360;7.340;2022-12-18T13:53:33;7.37;;;3.67;;
8036;SDS011;4061;51.360;7.340;2022-12-18T13:56:01;10.87;;;3.33;;
8036;SDS011;4061;51.360;7.340;2022-12-18T13:58:29;7.77;;;3.47;;
8036;SDS011;4061;51.360;7.340;2022-12-18T14:00:56;5.17;;;2.87;;
8036;SDS011;4061;51.360;7.340;2022-12-18T14:03:25;7.17;;;3.03;;
8036;SDS011;4061;51.360;7.340;2022-12-18T14:05:53;7.10;;;3.20;;
8036;SDS011;4061;51.360;7.340;2022-12-18T14:08:23;8.83;;;2.87;;
8036;SDS011;4061;51.360;7.340;2022-12-18T14:10:52;4.70;;;2.87;;
8036;SDS011;4061;51.360;7.340;2022-12-18T14:13:21;8.77;;;3.37;;
8036;SDS011;4061;51.360;7.340;2022-12-18T14:15:48;5.00;;;3.00;;
8036;SDS011;4061;51.360;7.340;2022-12-18T14:18:18;6.40;;;2.93;;
8036;SDS011;4061;51.360;7.340;2022-12-18T14:20:46;5.23;;;2.70;;
8036;SDS011;4061;51.360;7.340;2022-12-18T14:23:28;7.23;;;2.57;;
8036;SDS011;4061;51.360;7.340;2022-12-18T14:25:56;9.27;;;3.43;;
8036;SDS011;4061;51.360;7.340;2022-12-18T14:28:23;6.23;;;2.50;;
8036;SDS011;4061;51.360;7.340;2022-12-18T14:30:51;4.40;;;3.20;;
8036;SDS011;4061;51.360;7.340;2022-12-18T14:33:20;8.23;;;3.43;;
8036;SDS011;4061;51.360;7.340;2022-12-18T14:35:55;6.43;;;3.90;;
8036;SDS011;4061;51.360;7.340;2022-12-18T14:38:24;7.67;;;3.93;;
8036;SDS011;4061;51.360;7.340;2022-12-18T14:40:53;8.10;;;3.23;;
8036;SDS011;4061;51.360;7.340;2022-12-18T14:43:21;4.27;;;3.40;;
8036;SDS011;4061;51.360;7.340;2022-12-18T14:45:48;6.73;;;3.43;;
8036;SDS011;4061;51.360;7.340;2022-12-18T14:48:16;7.70;;;3.80;;
8036;SDS011;4061;51.360;7.340;2022-12-18T14:50:44;8.37;;;3.13;;
8036;SDS011;4061;51.360;7.340;2022-12-18T14:53:18;7.03;;;3.97;;
8036;SDS011;4061;51.360;7.340;2022-12-18T14:55:46;10.90;;;4.60;;
8036;SDS011;4061;51.360;7.340;2022-12-18T14:58:15;9.30;;;3.83;;
8036;SDS011;4061;51.360;7.340;2022-12-18T15:00:42;10.37;;;3.33;;
8036;SDS011;4061;51.360;7.340;2022-12-18T15:03:09;11.33;;;4.63;;
8036;SDS011;4061;51.360;7.340;2022-12-18T15:05:37;8.30;;;3.57;;
8036;SDS011;4061;51.360;7.340;2022-12-18T15:10:46;6.63;;;3.70;;
8036;SDS011;4061;51.360;7.340;2022-12-18T15:13:20;6.57;;;3.67;;
8036;SDS011;4061;51.360;7.340;2022-12-18T15:15:49;9.60;;;3.83;;
8036;SDS011;4061;51.360;7.340;2022-12-18T15:18:18;8.80;;;3.77;;
8036;SDS011;4061;51.360;7.340;2022-12-18T15:20:46;6.10;;;3.50;;
8036;SDS011;4061;51.360;7.340;2022-12-18T15:23:16;6.97;;;3.90;;
8036;SDS011;4061;51.360;7.340;2022-12-18T15:25:43;5.63;;;3.53;;
8036;SDS011;4061;51.360;7.340;2022-12-18T15:28:21;7.73;;;4.20;;
8036;SDS011;4061;51.360;7.340;2022-12-18T15:30:59;15.20;;;4.80;;
8036;SDS011;4061;51.360;7.340;2022-12-18T15:33:29;8.47;;;4.70;;
8036;SDS011;4061;51.360;7.340;2022-12-18T15:35:57;8.13;;;4.53;;